createdAt,value
2017-11-17T00:00:49.837Z,4.90
2017-11-17T00:03:17.329Z,4.90
2017-11-17T00:05:44.840Z,4.90
2017-11-17T00:08:12.381Z,4.90
2017-11-17T00:10:39.992Z,4.90
2017-11-17T00:13:07.640Z,4.90
2017-11-17T00:15:35.207Z,5.00
2017-11-17T00:18:03.489Z,4.90
2017-11-17T00:20:31.764Z,4.80
2017-11-17T00:23:00.048Z,4.80
2017-11-17T00:25:28.354Z,4.70
2017-11-17T00:27:55.852Z,4.70
2017-11-17T00:30:23.353Z,4.70
2017-11-17T00:32:50.885Z,4.60
2017-11-17T00:35:19.193Z,4.60
2017-11-17T00:37:46.698Z,4.60
2017-11-17T00:40:14.193Z,4.70
2017-11-17T00:42:42.457Z,4.70
2017-11-17T00:45:10.758Z,4.60
2017-11-17T00:47:39.017Z,4.50
2017-11-17T00:50:07.326Z,4.40
2017-11-17T00:52:34.872Z,4.40
2017-11-17T00:55:02.367Z,4.40
2017-11-17T00:57:29.884Z,4.50
2017-11-17T00:59:57.389Z,4.50
2017-11-17T01:02:24.888Z,4.40
2017-11-17T01:04:53.190Z,4.30
2017-11-17T01:07:20.690Z,4.30
2017-11-17T01:09:48.185Z,4.30
2017-11-17T01:12:16.453Z,4.20
2017-11-17T01:14:44.720Z,4.30
2017-11-17T01:17:12.225Z,4.30
2017-11-17T01:19:39.726Z,4.30
2017-11-17T01:22:07.249Z,4.30
2017-11-17T01:24:34.769Z,4.20
2017-11-17T01:27:03.031Z,4.20
2017-11-17T01:29:31.344Z,4.00
2017-11-17T01:31:58.856Z,4.00
2017-11-17T01:34:27.123Z,3.90
2017-11-17T01:36:54.627Z,3.90
2017-11-17T01:39:22.141Z,4.00
2017-11-17T01:41:49.638Z,3.90
2017-11-17T01:44:17.897Z,3.90
2017-11-17T01:46:46.211Z,4.00
2017-11-17T01:49:13.733Z,4.00
2017-11-17T01:51:42.008Z,3.90
2017-11-17T01:54:10.268Z,4.00
2017-11-17T01:56:38.546Z,4.00
2017-11-17T01:59:06.050Z,4.00
2017-11-17T02:01:33.593Z,4.00
2017-11-17T02:04:01.901Z,4.00
2017-11-17T02:06:29.428Z,4.00
2017-11-17T02:08:56.941Z,4.00
2017-11-17T02:11:24.482Z,4.10
2017-11-17T02:13:52.009Z,4.10
2017-11-17T02:16:20.268Z,4.10
2017-11-17T02:18:48.545Z,4.10
2017-11-17T02:21:16.825Z,4.00
2017-11-17T02:23:45.101Z,4.10
2017-11-17T02:26:13.408Z,4.10
2017-11-17T02:28:40.921Z,4.10
2017-11-17T02:31:08.419Z,4.10
2017-11-17T02:33:35.923Z,4.00
2017-11-17T02:36:03.442Z,4.10
2017-11-17T02:38:30.956Z,4.00
2017-11-17T02:40:58.475Z,4.00
2017-11-17T02:43:25.977Z,4.00
2017-11-17T02:45:54.294Z,4.20
2017-11-17T02:48:21.798Z,4.10
2017-11-17T02:50:49.332Z,4.10
2017-11-17T02:53:16.849Z,4.10
2017-11-17T02:55:45.112Z,4.10
2017-11-17T02:58:13.384Z,4.20
2017-11-17T03:00:41.661Z,4.10
2017-11-17T03:03:09.969Z,4.10
2017-11-17T03:05:37.464Z,4.10
2017-11-17T03:08:04.961Z,4.10
2017-11-17T03:10:33.235Z,4.10
2017-11-17T03:13:01.513Z,4.10
2017-11-17T03:15:29.833Z,4.10
2017-11-17T03:17:57.360Z,4.10
2017-11-17T03:20:25.621Z,4.10
2017-11-17T03:22:53.917Z,4.00
2017-11-17T03:25:22.197Z,4.10
2017-11-17T03:27:49.712Z,4.10
2017-11-17T03:30:17.261Z,4.10
2017-11-17T03:32:44.773Z,4.10
2017-11-17T03:35:12.288Z,4.10
2017-11-17T03:37:39.797Z,4.10
2017-11-17T03:40:07.332Z,4.00
2017-11-17T03:42:35.598Z,4.00
2017-11-17T03:45:03.115Z,4.00
2017-11-17T03:47:30.639Z,4.00
2017-11-17T03:49:58.150Z,4.00
2017-11-17T03:52:25.661Z,4.10
2017-11-17T03:54:53.192Z,4.00
2017-11-17T03:57:20.729Z,4.00
2017-11-17T03:59:48.222Z,4.00
2017-11-17T04:02:16.483Z,3.90
2017-11-17T04:04:44.018Z,3.90
2017-11-17T04:07:11.533Z,4.00
2017-11-17T04:09:39.038Z,3.90
2017-11-17T04:12:06.539Z,3.90
2017-11-17T04:14:34.073Z,3.90
2017-11-17T04:17:01.570Z,4.10
2017-11-17T04:19:29.103Z,4.10
2017-11-17T04:21:57.365Z,4.10
2017-11-17T04:24:24.880Z,4.00
2017-11-17T04:26:52.388Z,4.00
2017-11-17T04:29:19.900Z,4.00
2017-11-17T04:31:47.424Z,4.00
2017-11-17T04:34:15.695Z,4.10
2017-11-17T04:36:43.960Z,4.00
2017-11-17T04:39:12.244Z,4.10
2017-11-17T04:41:40.513Z,4.00
2017-11-17T04:44:08.788Z,4.00
2017-11-17T04:46:37.094Z,4.10
2017-11-17T04:49:04.589Z,4.00
2017-11-17T04:51:32.108Z,4.10
2017-11-17T04:53:59.625Z,4.00
2017-11-17T04:56:27.125Z,4.00
2017-11-17T04:58:54.638Z,4.00
2017-11-17T05:01:22.141Z,4.00
2017-11-17T05:03:49.652Z,4.00
2017-11-17T05:06:17.181Z,4.00
2017-11-17T05:08:44.682Z,4.00
2017-11-17T05:11:12.221Z,4.00
2017-11-17T05:13:39.769Z,4.00
2017-11-17T05:16:07.280Z,4.00
2017-11-17T05:18:35.568Z,4.10
2017-11-17T05:21:03.078Z,4.00
2017-11-17T05:23:30.600Z,4.00
2017-11-17T05:25:58.097Z,4.00
2017-11-17T05:28:25.601Z,4.00
2017-11-17T05:30:53.124Z,3.90
2017-11-17T05:33:20.664Z,3.90
2017-11-17T05:35:48.168Z,4.00
2017-11-17T05:38:16.469Z,4.10
2017-11-17T05:40:43.984Z,4.10
2017-11-17T05:43:11.476Z,4.00
2017-11-17T05:45:38.977Z,4.00
2017-11-17T05:48:06.480Z,4.10
2017-11-17T05:50:34.741Z,4.10
2017-11-17T05:53:03.012Z,4.10
2017-11-17T05:55:30.547Z,4.10
2017-11-17T05:57:58.032Z,4.20
2017-11-17T06:00:26.348Z,4.10
2017-11-17T06:02:53.864Z,4.10
2017-11-17T06:05:21.364Z,4.10
2017-11-17T06:07:49.053Z,4.10
2017-11-17T06:10:16.560Z,4.20
2017-11-17T06:12:44.853Z,4.20
2017-11-17T06:15:12.353Z,4.20
2017-11-17T06:17:39.867Z,4.10
2017-11-17T06:20:07.361Z,4.20
2017-11-17T06:22:34.909Z,4.10
2017-11-17T06:25:02.423Z,4.10
2017-11-17T06:27:30.692Z,4.10
2017-11-17T06:29:58.185Z,4.10
2017-11-17T06:32:25.701Z,4.20
2017-11-17T06:34:53.206Z,4.20
2017-11-17T06:37:20.706Z,4.30
2017-11-17T06:39:48.236Z,4.40
2017-11-17T06:42:15.762Z,4.30
2017-11-17T06:44:44.033Z,4.30
2017-11-17T06:47:12.297Z,4.20
2017-11-17T06:49:40.564Z,4.30
2017-11-17T06:52:08.099Z,4.30
2017-11-17T06:54:35.608Z,4.30
2017-11-17T06:57:03.877Z,4.30
2017-11-17T06:59:32.145Z,4.30
2017-11-17T07:02:00.416Z,4.40
2017-11-17T07:04:28.696Z,4.50
2017-11-17T07:06:57.049Z,4.40
2017-11-17T07:09:24.544Z,4.40
2017-11-17T07:11:52.808Z,4.50
2017-11-17T07:14:21.096Z,4.40
2017-11-17T07:16:49.369Z,4.60
2017-11-17T07:19:17.649Z,4.60
2017-11-17T07:21:45.925Z,4.60
2017-11-17T07:24:14.212Z,4.70
2017-11-17T07:26:41.713Z,4.70
2017-11-17T07:29:09.262Z,4.70
2017-11-17T07:31:36.760Z,4.80
2017-11-17T07:34:04.257Z,4.70
2017-11-17T07:36:31.770Z,4.80
2017-11-17T07:38:59.301Z,4.80
2017-11-17T07:41:26.797Z,4.90
2017-11-17T07:43:55.077Z,5.00
2017-11-17T07:46:23.380Z,4.90
2017-11-17T07:48:50.889Z,4.90
2017-11-17T07:51:18.406Z,5.00
2017-11-17T07:53:45.953Z,4.90
2017-11-17T07:56:13.497Z,5.00
2017-11-17T07:58:41.944Z,5.10
2017-11-17T08:01:09.440Z,5.10
2017-11-17T08:03:37.723Z,5.10
2017-11-17T08:06:05.239Z,5.10
2017-11-17T08:11:25.792Z,5.20
2017-11-17T08:13:54.077Z,5.10
2017-11-17T08:16:21.581Z,5.10
2017-11-17T08:18:49.108Z,5.10
2017-11-17T08:21:16.610Z,5.20
2017-11-17T08:23:44.277Z,5.20
2017-11-17T08:26:11.862Z,5.20
2017-11-17T08:28:40.121Z,5.30
2017-11-17T08:31:07.627Z,5.30
2017-11-17T08:33:35.157Z,5.30
2017-11-17T08:36:03.421Z,5.40
2017-11-17T08:38:31.690Z,5.40
2017-11-17T08:40:59.207Z,5.40
2017-11-17T08:46:00.561Z,5.30
2017-11-17T08:48:28.081Z,5.30
2017-11-17T08:50:56.391Z,5.40
2017-11-17T08:53:23.921Z,5.40
2017-11-17T08:55:52.201Z,5.30
2017-11-17T08:58:20.489Z,5.40
2017-11-17T09:00:47.984Z,5.40
2017-11-17T09:03:15.484Z,5.40
2017-11-17T09:05:43.773Z,5.40
2017-11-17T09:08:12.044Z,5.40
2017-11-17T09:10:40.340Z,5.20
2017-11-17T09:13:07.861Z,5.20
2017-11-17T09:15:35.356Z,5.20
2017-11-17T09:18:02.868Z,5.20
2017-11-17T09:20:30.389Z,5.20
2017-11-17T09:22:57.944Z,5.20
2017-11-17T09:25:25.481Z,5.10
2017-11-17T09:27:53.745Z,5.00
2017-11-17T09:30:22.017Z,5.00
2017-11-17T09:32:50.331Z,5.10
2017-11-17T09:35:17.848Z,5.10
2017-11-17T09:37:45.346Z,5.10
2017-11-17T09:40:12.844Z,5.00
2017-11-17T09:42:40.348Z,5.20
2017-11-17T09:45:08.611Z,5.10
2017-11-17T09:47:36.893Z,5.10
2017-11-17T09:50:05.191Z,5.10
2017-11-17T09:52:32.696Z,5.10
2017-11-17T09:55:00.193Z,5.20
2017-11-17T09:57:27.692Z,5.20
2017-11-17T09:59:55.227Z,5.10
2017-11-17T10:02:22.762Z,5.20
2017-11-17T10:04:51.050Z,5.10
2017-11-17T10:07:18.549Z,5.10
2017-11-17T10:09:46.161Z,5.10
2017-11-17T10:12:14.435Z,5.20
2017-11-17T10:14:42.697Z,5.10
2017-11-17T10:17:10.960Z,5.20
2017-11-17T10:19:38.461Z,5.20
2017-11-17T10:22:05.972Z,5.20
2017-11-17T10:24:34.077Z,5.20
2017-11-17T10:27:02.337Z,5.30
2017-11-17T10:29:30.606Z,5.30
2017-11-17T10:31:58.112Z,5.30
2017-11-17T10:34:25.641Z,5.20
2017-11-17T10:36:53.924Z,5.20
2017-11-17T10:39:22.212Z,5.20
2017-11-17T10:41:49.704Z,5.20
2017-11-17T10:44:17.229Z,5.30
2017-11-17T10:46:44.756Z,5.20
2017-11-17T10:49:12.257Z,5.20
2017-11-17T10:51:39.784Z,5.30
2017-11-17T10:54:08.045Z,5.20
2017-11-17T10:56:35.546Z,5.20
2017-11-17T10:59:04.858Z,5.30
2017-11-17T11:01:32.388Z,5.30
2017-11-17T11:04:00.677Z,5.30
2017-11-17T11:06:28.197Z,5.30
2017-11-17T11:08:55.689Z,5.30
2017-11-17T11:11:28.861Z,5.30
2017-11-17T11:13:57.125Z,5.40
2017-11-17T11:16:25.397Z,5.30
2017-11-17T11:18:52.912Z,5.30
2017-11-17T11:21:20.413Z,5.40
2017-11-17T11:23:47.918Z,5.50
2017-11-17T11:26:15.445Z,5.50
2017-11-17T11:28:43.708Z,5.60
2017-11-17T11:31:11.209Z,5.60
2017-11-17T11:33:38.721Z,5.60
2017-11-17T11:36:06.241Z,5.60
2017-11-17T11:38:33.757Z,5.60
2017-11-17T11:41:02.053Z,5.60
2017-11-17T11:43:29.581Z,5.50
2017-11-17T11:45:57.072Z,5.60
2017-11-17T11:48:24.572Z,5.60
2017-11-17T11:50:52.070Z,5.70
2017-11-17T11:53:20.353Z,5.70
2017-11-17T11:55:47.865Z,5.60
2017-11-17T11:58:15.364Z,5.60
2017-11-17T12:00:43.629Z,5.60
2017-11-17T12:03:11.924Z,5.60
2017-11-17T12:05:40.193Z,5.70
2017-11-17T12:08:08.480Z,5.70
2017-11-17T12:10:35.990Z,5.70
2017-11-17T12:13:03.520Z,5.80
2017-11-17T12:15:31.021Z,5.80
2017-11-17T12:17:58.559Z,5.80
2017-11-17T12:20:26.084Z,5.70
2017-11-17T12:22:53.598Z,5.60
2017-11-17T12:25:21.141Z,5.60
2017-11-17T12:27:48.677Z,5.70
2017-11-17T12:30:16.177Z,5.70
2017-11-17T12:32:43.685Z,5.80
2017-11-17T12:35:11.204Z,5.80
2017-11-17T12:37:39.476Z,5.80
2017-11-17T12:40:06.977Z,5.80
2017-11-17T12:42:34.500Z,5.80
2017-11-17T12:45:02.765Z,5.80
2017-11-17T12:47:30.267Z,5.80
2017-11-17T12:49:57.792Z,5.90
2017-11-17T12:52:26.057Z,5.90
2017-11-17T12:54:53.556Z,5.90
2017-11-17T12:57:21.074Z,5.90
2017-11-17T12:59:48.589Z,5.80
2017-11-17T13:02:16.108Z,5.70
2017-11-17T13:04:44.376Z,5.70
2017-11-17T13:07:12.645Z,5.80
2017-11-17T13:09:40.153Z,5.80
2017-11-17T13:12:07.668Z,5.90
2017-11-17T13:14:35.936Z,5.80
2017-11-17T13:17:03.478Z,5.80
2017-11-17T13:19:30.998Z,5.90
2017-11-17T13:21:58.508Z,5.80
2017-11-17T13:24:26.033Z,5.80
2017-11-17T13:26:53.545Z,5.80
2017-11-17T13:29:21.813Z,5.80
2017-11-17T13:31:50.104Z,5.80
2017-11-17T13:34:18.377Z,5.80
2017-11-17T13:36:46.640Z,5.80
2017-11-17T13:39:14.161Z,5.80
2017-11-17T13:41:41.665Z,5.80
2017-11-17T13:44:09.949Z,5.80
2017-11-17T13:46:38.220Z,5.70
2017-11-17T13:49:06.481Z,5.60
2017-11-17T13:51:34.009Z,5.60
2017-11-17T13:54:01.529Z,5.70
2017-11-17T13:56:29.072Z,5.70
2017-11-17T13:58:57.361Z,5.70
2017-11-17T14:01:25.660Z,5.60
2017-11-17T14:03:53.153Z,5.60
2017-11-17T14:06:20.657Z,5.60
2017-11-17T14:08:48.934Z,5.60
2017-11-17T14:11:16.447Z,5.60
2017-11-17T14:13:43.940Z,5.60
2017-11-17T14:16:12.225Z,5.60
2017-11-17T14:18:40.491Z,5.60
2017-11-17T14:21:08.768Z,5.60
2017-11-17T14:23:37.033Z,5.60
2017-11-17T14:26:05.324Z,5.50
2017-11-17T14:28:33.585Z,5.50
2017-11-17T14:31:01.082Z,5.40
2017-11-17T14:33:28.584Z,5.40
2017-11-17T14:35:56.100Z,5.40
2017-11-17T14:38:23.632Z,5.40
2017-11-17T14:40:51.896Z,5.40
2017-11-17T14:43:20.174Z,5.40
2017-11-17T14:45:48.465Z,5.40
2017-11-17T14:48:16.733Z,5.40
2017-11-17T14:50:45.019Z,5.30
2017-11-17T14:53:12.544Z,5.30
2017-11-17T14:55:41.556Z,5.40
2017-11-17T14:58:09.840Z,5.40
2017-11-17T15:00:38.124Z,5.30
2017-11-17T15:03:06.393Z,5.30
2017-11-17T15:05:34.660Z,5.40
2017-11-17T15:08:02.931Z,5.40
2017-11-17T15:10:30.449Z,5.40
2017-11-17T15:12:57.957Z,5.40
2017-11-17T15:15:26.249Z,5.50
2017-11-17T15:17:54.515Z,5.50
2017-11-17T15:20:22.801Z,5.40
2017-11-17T15:22:51.068Z,5.40
2017-11-17T15:25:19.337Z,5.30
2017-11-17T15:27:47.629Z,5.30
2017-11-17T15:30:15.919Z,5.40
2017-11-17T15:32:43.437Z,5.40
2017-11-17T15:35:12.470Z,5.30
2017-11-17T15:37:39.985Z,5.30
2017-11-17T15:40:07.484Z,5.40
2017-11-17T15:42:34.997Z,5.40
2017-11-17T15:45:04.047Z,5.40
2017-11-17T15:47:31.568Z,5.40
2017-11-17T15:49:59.838Z,5.50
2017-11-17T15:52:27.384Z,5.50
2017-11-17T15:54:54.852Z,5.50
2017-11-17T15:57:22.393Z,5.40
2017-11-17T15:59:49.906Z,5.40
2017-11-17T16:02:17.448Z,5.30
2017-11-17T16:04:45.740Z,5.40
2017-11-17T16:07:13.248Z,5.40
2017-11-17T16:09:40.754Z,5.40
2017-11-17T16:12:09.037Z,5.40
2017-11-17T16:14:36.538Z,5.40
2017-11-17T16:17:04.053Z,5.30
2017-11-17T16:19:31.557Z,5.40
2017-11-17T16:21:59.057Z,5.40
2017-11-17T16:24:27.332Z,5.40
2017-11-17T16:26:55.631Z,5.40
2017-11-17T16:29:23.129Z,5.40
2017-11-17T16:31:50.625Z,5.40
2017-11-17T16:34:18.904Z,5.40
2017-11-17T16:36:47.189Z,5.40
2017-11-17T16:39:14.692Z,5.40
2017-11-17T16:41:42.192Z,5.40
2017-11-17T16:44:10.456Z,5.30
2017-11-17T16:46:37.961Z,5.30
2017-11-17T16:49:05.460Z,5.40
2017-11-17T16:51:32.981Z,5.50
2017-11-17T16:54:00.493Z,5.40
2017-11-17T16:56:28.776Z,5.60
2017-11-17T16:58:57.057Z,5.50
2017-11-17T17:01:25.338Z,5.50
2017-11-17T17:03:53.627Z,5.50
2017-11-17T17:06:21.153Z,5.50
2017-11-17T17:08:49.436Z,5.60
2017-11-17T17:11:17.703Z,5.50
2017-11-17T17:13:45.221Z,5.50
2017-11-17T17:16:12.717Z,5.50
2017-11-17T17:18:40.232Z,5.50
2017-11-17T17:21:07.874Z,5.50
2017-11-17T17:23:35.379Z,5.40
2017-11-17T17:26:02.903Z,5.50
2017-11-17T17:28:30.401Z,5.40
2017-11-17T17:30:57.919Z,5.40
2017-11-17T17:33:25.436Z,5.50
2017-11-17T17:35:52.935Z,5.50
2017-11-17T17:38:20.482Z,5.50
2017-11-17T17:40:48.744Z,5.40
2017-11-17T17:43:17.005Z,5.50
2017-11-17T17:45:45.273Z,5.50
2017-11-17T17:48:13.652Z,5.40
2017-11-17T17:50:41.158Z,5.40
2017-11-17T17:53:08.665Z,5.40
2017-11-17T17:55:36.197Z,5.40
2017-11-17T17:58:03.693Z,5.30
2017-11-17T18:00:31.197Z,5.40
2017-11-17T18:02:58.724Z,5.30
2017-11-17T18:05:27.019Z,5.40
2017-11-17T18:07:54.532Z,5.40
2017-11-17T18:10:22.049Z,5.40
2017-11-17T18:12:49.568Z,5.30
2017-11-17T18:15:17.833Z,5.20
2017-11-17T18:17:45.356Z,5.20
2017-11-17T18:20:12.873Z,5.30
2017-11-17T18:22:41.140Z,5.30
2017-11-17T18:25:09.416Z,5.20
2017-11-17T18:27:37.698Z,5.30
2017-11-17T18:30:05.997Z,5.20
2017-11-17T18:32:33.520Z,5.20
2017-11-17T18:35:01.791Z,5.10
2017-11-17T18:37:29.300Z,5.10
2017-11-17T18:39:56.808Z,5.10
2017-11-17T18:42:25.128Z,5.20
2017-11-17T18:44:53.388Z,5.20
2017-11-17T18:47:21.654Z,5.10
2017-11-17T18:49:49.992Z,5.00
2017-11-17T18:52:17.452Z,5.10
2017-11-17T18:54:44.948Z,5.00
2017-11-17T18:57:13.220Z,5.10
2017-11-17T18:59:41.500Z,5.10
2017-11-17T19:02:09.815Z,5.10
2017-11-17T19:04:38.092Z,5.00
2017-11-17T19:07:05.588Z,5.00
2017-11-17T19:09:33.093Z,5.00
2017-11-17T19:12:00.592Z,5.10
2017-11-17T19:14:28.089Z,5.10
2017-11-17T19:16:56.386Z,5.10
2017-11-17T19:19:23.881Z,5.10
2017-11-17T19:21:51.377Z,5.00
2017-11-17T19:24:19.644Z,5.00
2017-11-17T19:26:47.147Z,5.00
2017-11-17T19:29:14.660Z,5.00
2017-11-17T19:31:42.163Z,5.00
2017-11-17T19:34:09.669Z,5.00
2017-11-17T19:36:37.168Z,5.00
2017-11-17T19:39:04.681Z,5.00
2017-11-17T19:41:32.184Z,5.10
2017-11-17T19:43:59.693Z,5.00
2017-11-17T19:46:27.194Z,5.00
2017-11-17T19:48:54.721Z,4.90
2017-11-17T19:51:22.225Z,5.00
2017-11-17T19:53:49.741Z,4.80
2017-11-17T19:56:17.247Z,4.90
2017-11-17T19:58:44.786Z,4.90
2017-11-17T20:01:12.354Z,4.90
2017-11-17T20:03:39.819Z,4.90
2017-11-17T20:06:07.334Z,4.70
2017-11-17T20:08:36.797Z,4.80
2017-11-17T20:11:04.779Z,4.80
2017-11-17T20:13:32.280Z,4.80
2017-11-17T20:16:00.553Z,4.80
2017-11-17T20:18:28.829Z,4.80
2017-11-17T20:20:57.110Z,4.70
2017-11-17T20:23:25.377Z,4.70
2017-11-17T20:25:53.660Z,4.70
2017-11-17T20:28:21.929Z,4.70
2017-11-17T20:30:49.461Z,4.70
2017-11-17T20:33:16.981Z,4.70
2017-11-17T20:35:44.489Z,4.80
2017-11-17T20:38:12.008Z,4.70
2017-11-17T20:40:39.505Z,4.70
2017-11-17T20:43:07.023Z,4.80
2017-11-17T20:45:34.546Z,4.80
2017-11-17T20:48:02.815Z,4.70
2017-11-17T20:50:30.321Z,4.70
2017-11-17T20:52:58.692Z,4.70
2017-11-17T20:55:26.193Z,4.70
2017-11-17T20:57:54.517Z,4.80
2017-11-17T21:00:22.012Z,4.80
2017-11-17T21:02:49.520Z,4.80
2017-11-17T21:05:17.796Z,4.70
2017-11-17T21:07:46.073Z,4.80
2017-11-17T21:10:14.341Z,4.90
2017-11-17T21:12:42.621Z,4.80
2017-11-17T21:15:10.882Z,4.90
2017-11-17T21:17:38.384Z,4.90
2017-11-17T21:20:05.900Z,4.80
2017-11-17T21:22:33.417Z,4.80
2017-11-17T21:25:00.918Z,4.80
2017-11-17T21:27:28.418Z,4.80
2017-11-17T21:29:55.930Z,4.80
2017-11-17T21:32:23.453Z,4.70
2017-11-17T21:34:50.953Z,4.80
2017-11-17T21:37:18.455Z,4.90
2017-11-17T21:39:45.980Z,4.90
2017-11-17T21:42:14.262Z,4.90
2017-11-17T21:44:42.534Z,4.80
2017-11-17T21:47:10.817Z,4.90
2017-11-17T21:49:39.100Z,4.90
2017-11-17T21:52:07.383Z,4.90
2017-11-17T21:54:34.896Z,4.80
2017-11-17T21:57:02.400Z,4.80
2017-11-17T21:59:29.914Z,4.90
2017-11-17T22:01:57.409Z,4.80
2017-11-17T22:04:25.669Z,4.80
2017-11-17T22:06:53.941Z,4.80
2017-11-17T22:09:22.216Z,4.80
2017-11-17T22:11:49.732Z,4.80
2017-11-17T22:14:17.249Z,4.90
2017-11-17T22:16:45.516Z,5.00
2017-11-17T22:19:13.787Z,5.00
2017-11-17T22:21:42.064Z,5.00
2017-11-17T22:24:10.354Z,5.00
2017-11-17T22:26:38.616Z,4.90
2017-11-17T22:29:06.116Z,4.90
2017-11-17T22:31:33.641Z,5.00
2017-11-17T22:34:01.909Z,5.00
2017-11-17T22:36:29.420Z,5.00
2017-11-17T22:38:56.921Z,4.90
2017-11-17T22:41:24.433Z,5.00
2017-11-17T22:43:51.944Z,5.00
2017-11-17T22:46:20.221Z,5.00
2017-11-17T22:48:48.488Z,5.00
2017-11-17T22:51:15.986Z,5.00
2017-11-17T22:53:43.488Z,4.90
2017-11-17T22:56:10.985Z,5.00
2017-11-17T22:58:38.494Z,5.00
2017-11-17T23:01:06.009Z,5.00
2017-11-17T23:03:33.509Z,4.90
2017-11-17T23:06:01.021Z,5.00
2017-11-17T23:08:29.380Z,4.90
2017-11-17T23:10:58.185Z,4.90
2017-11-17T23:13:26.448Z,4.90
2017-11-17T23:15:54.722Z,4.90
2017-11-17T23:18:22.222Z,4.80
2017-11-17T23:20:49.733Z,4.90
2017-11-17T23:23:17.250Z,4.90
2017-11-17T23:25:44.769Z,4.90
2017-11-17T23:28:13.032Z,4.90
2017-11-17T23:30:40.525Z,4.90
2017-11-17T23:33:08.029Z,4.90
2017-11-17T23:35:35.533Z,4.90
2017-11-17T23:38:03.037Z,4.90
2017-11-17T23:40:30.561Z,5.00
2017-11-17T23:42:58.061Z,4.90
2017-11-17T23:45:25.564Z,5.00
2017-11-17T23:47:53.080Z,4.90
2017-11-17T23:50:20.599Z,5.00
2017-11-17T23:52:48.101Z,5.00
2017-11-17T23:55:15.624Z,4.90
2017-11-17T23:57:43.142Z,5.00
